sensor_id;sensor_type;location;lat;lon;timestamp;pressure;altitude;pressure_sealevel;temperature;humidity
20909;BME280;10614;53.198;6.570;2023-06-10T00:00:53;101793.44;;;19.49;57.62
20909;BME280;10614;53.198;6.570;2023-06-10T00:02:56;101781.22;;;19.45;57.36
20909;BME280;10614;53.198;6.570;2023-06-10T00:04:58;101786.84;;;19.40;57.93
20909;BME280;10614;53.198;6.570;2023-06-10T00:07:00;101788.75;;;19.38;58.28
20909;BME280;10614;53.198;6.570;2023-06-10T00:09:03;101784.69;;;19.33;58.49
20909;BME280;10614;53.198;6.570;2023-06-10T00:11:06;101786.56;;;19.31;58.29
20909;BME280;10614;53.198;6.570;2023-06-10T00:13:09;101778.78;;;19.28;58.18
20909;BME280;10614;53.198;6.570;2023-06-10T00:15:11;101787.13;;;19.22;58.70
20909;BME280;10614;53.198;6.570;2023-06-10T00:17:13;101785.63;;;19.17;58.59
20909;BME280;10614;53.198;6.570;2023-06-10T00:19:15;101782.38;;;19.12;58.99
20909;BME280;10614;53.198;6.570;2023-06-10T00:21:19;101789.72;;;19.09;58.91
20909;BME280;10614;53.198;6.570;2023-06-10T00:23:21;101783.03;;;19.02;59.03
20909;BME280;10614;53.198;6.570;2023-06-10T00:25:25;101789.31;;;19.01;59.04
20909;BME280;10614;53.198;6.570;2023-06-10T00:27:27;101785.28;;;18.93;58.82
20909;BME280;10614;53.198;6.570;2023-06-10T00:29:37;101788.34;;;18.87;58.63
20909;BME280;10614;53.198;6.570;2023-06-10T00:31:39;101790.31;;;18.84;58.77
20909;BME280;10614;53.198;6.570;2023-06-10T00:33:41;101787.75;;;18.82;59.07
20909;BME280;10614;53.198;6.570;2023-06-10T00:35:43;101792.41;;;18.79;58.96
20909;BME280;10614;53.198;6.570;2023-06-10T00:37:45;101776.94;;;18.69;58.54
20909;BME280;10614;53.198;6.570;2023-06-10T00:39:47;101776.22;;;18.66;58.60
20909;BME280;10614;53.198;6.570;2023-06-10T00:41:49;101788.63;;;18.67;58.96
20909;BME280;10614;53.198;6.570;2023-06-10T00:43:50;101795.16;;;18.61;59.02
20909;BME280;10614;53.198;6.570;2023-06-10T00:45:54;101790.50;;;18.50;59.17
20909;BME280;10614;53.198;6.570;2023-06-10T00:47:56;101786.78;;;18.53;58.76
20909;BME280;10614;53.198;6.570;2023-06-10T00:49:58;101791.41;;;18.49;59.58
20909;BME280;10614;53.198;6.570;2023-06-10T00:52:00;101788.34;;;18.41;59.26
20909;BME280;10614;53.198;6.570;2023-06-10T00:54:02;101795.56;;;18.39;59.93
20909;BME280;10614;53.198;6.570;2023-06-10T00:56:05;101786.28;;;18.30;60.11
20909;BME280;10614;53.198;6.570;2023-06-10T00:58:08;101793.25;;;18.33;60.35
20909;BME280;10614;53.198;6.570;2023-06-10T01:00:12;101790.00;;;18.28;60.33
20909;BME280;10614;53.198;6.570;2023-06-10T01:02:15;101783.91;;;18.26;60.01
20909;BME280;10614;53.198;6.570;2023-06-10T01:04:17;101786.06;;;18.19;60.51
20909;BME280;10614;53.198;6.570;2023-06-10T01:06:27;101780.91;;;18.16;60.68
20909;BME280;10614;53.198;6.570;2023-06-10T01:08:41;101789.06;;;18.13;60.62
20909;BME280;10614;53.198;6.570;2023-06-10T01:10:50;101789.16;;;18.11;61.20
20909;BME280;10614;53.198;6.570;2023-06-10T01:12:58;101790.25;;;18.07;61.99
20909;BME280;10614;53.198;6.570;2023-06-10T01:15:03;101788.75;;;18.03;62.10
20909;BME280;10614;53.198;6.570;2023-06-10T01:17:07;101800.75;;;17.95;62.05
20909;BME280;10614;53.198;6.570;2023-06-10T01:19:14;101793.34;;;17.84;62.13
20909;BME280;10614;53.198;6.570;2023-06-10T01:21:22;101796.19;;;17.81;62.88
20909;BME280;10614;53.198;6.570;2023-06-10T01:23:25;101792.91;;;17.76;62.60
20909;BME280;10614;53.198;6.570;2023-06-10T01:25:28;101794.50;;;17.62;63.62
20909;BME280;10614;53.198;6.570;2023-06-10T01:27:36;101803.47;;;17.61;64.02
20909;BME280;10614;53.198;6.570;2023-06-10T01:29:44;101804.63;;;17.56;62.96
20909;BME280;10614;53.198;6.570;2023-06-10T01:31:49;101793.47;;;17.49;63.22
20909;BME280;10614;53.198;6.570;2023-06-10T01:33:53;101800.81;;;17.44;64.98
20909;BME280;10614;53.198;6.570;2023-06-10T01:35:56;101801.00;;;17.41;64.06
20909;BME280;10614;53.198;6.570;2023-06-10T01:38:01;101796.16;;;17.32;64.95
20909;BME280;10614;53.198;6.570;2023-06-10T01:40:04;101806.88;;;17.30;64.86
20909;BME280;10614;53.198;6.570;2023-06-10T01:42:07;101798.28;;;17.25;64.86
20909;BME280;10614;53.198;6.570;2023-06-10T01:44:10;101808.25;;;17.21;65.30
20909;BME280;10614;53.198;6.570;2023-06-10T01:46:12;101817.31;;;17.17;65.41
20909;BME280;10614;53.198;6.570;2023-06-10T01:48:14;101811.22;;;17.15;65.41
20909;BME280;10614;53.198;6.570;2023-06-10T01:50:16;101813.09;;;17.13;66.50
20909;BME280;10614;53.198;6.570;2023-06-10T01:52:19;101812.41;;;17.09;66.25
20909;BME280;10614;53.198;6.570;2023-06-10T01:54:22;101807.09;;;17.09;66.57
20909;BME280;10614;53.198;6.570;2023-06-10T01:56:24;101803.47;;;17.11;66.91
20909;BME280;10614;53.198;6.570;2023-06-10T01:58:26;101809.03;;;17.06;66.99
20909;BME280;10614;53.198;6.570;2023-06-10T02:00:28;101818.88;;;17.04;67.79
20909;BME280;10614;53.198;6.570;2023-06-10T02:02:30;101807.81;;;16.96;67.46
20909;BME280;10614;53.198;6.570;2023-06-10T02:04:32;101815.16;;;16.91;68.79
20909;BME280;10614;53.198;6.570;2023-06-10T02:06:34;101810.69;;;16.91;68.63
20909;BME280;10614;53.198;6.570;2023-06-10T02:08:36;101813.53;;;16.88;69.34
20909;BME280;10614;53.198;6.570;2023-06-10T02:10:39;101804.03;;;16.82;69.48
20909;BME280;10614;53.198;6.570;2023-06-10T02:12:41;101814.50;;;16.85;69.61
20909;BME280;10614;53.198;6.570;2023-06-10T02:14:43;101816.41;;;16.83;70.02
20909;BME280;10614;53.198;6.570;2023-06-10T02:16:44;101800.91;;;16.74;70.10
20909;BME280;10614;53.198;6.570;2023-06-10T02:18:47;101806.34;;;16.71;70.07
20909;BME280;10614;53.198;6.570;2023-06-10T02:20:49;101803.06;;;16.66;70.09
20909;BME280;10614;53.198;6.570;2023-06-10T02:22:51;101816.28;;;16.67;70.14
20909;BME280;10614;53.198;6.570;2023-06-10T02:24:53;101810.13;;;16.67;70.89
20909;BME280;10614;53.198;6.570;2023-06-10T02:26:57;101806.72;;;16.63;71.24
20909;BME280;10614;53.198;6.570;2023-06-10T02:29:00;101812.28;;;16.59;70.94
20909;BME280;10614;53.198;6.570;2023-06-10T02:31:04;101823.88;;;16.58;72.35
20909;BME280;10614;53.198;6.570;2023-06-10T02:33:07;101825.97;;;16.51;72.60
20909;BME280;10614;53.198;6.570;2023-06-10T02:35:11;101823.44;;;16.48;72.79
20909;BME280;10614;53.198;6.570;2023-06-10T02:37:13;101817.50;;;16.43;72.99
20909;BME280;10614;53.198;6.570;2023-06-10T02:39:15;101789.16;;;16.24;73.02
20909;BME280;10614;53.198;6.570;2023-06-10T02:41:21;101810.91;;;16.33;73.74
20909;BME280;10614;53.198;6.570;2023-06-10T02:43:28;101826.69;;;16.36;73.32
20909;BME280;10614;53.198;6.570;2023-06-10T02:45:34;101799.03;;;16.22;74.87
20909;BME280;10614;53.198;6.570;2023-06-10T02:47:38;101798.44;;;16.16;75.24
20909;BME280;10614;53.198;6.570;2023-06-10T02:49:42;101809.13;;;16.14;74.77
20909;BME280;10614;53.198;6.570;2023-06-10T02:51:45;101798.09;;;16.04;75.19
20909;BME280;10614;53.198;6.570;2023-06-10T02:53:54;101825.72;;;16.19;75.65
20909;BME280;10614;53.198;6.570;2023-06-10T02:56:02;101817.97;;;16.15;76.82
20909;BME280;10614;53.198;6.570;2023-06-10T02:58:05;101784.09;;;15.82;77.46
20909;BME280;10614;53.198;6.570;2023-06-10T03:00:12;101816.75;;;16.03;77.32
20909;BME280;10614;53.198;6.570;2023-06-10T03:02:27;101814.53;;;15.94;77.89
20909;BME280;10614;53.198;6.570;2023-06-10T03:04:35;101822.50;;;15.94;79.14
20909;BME280;10614;53.198;6.570;2023-06-10T03:06:38;101827.91;;;15.92;79.52
20909;BME280;10614;53.198;6.570;2023-06-10T03:08:42;101768.16;;;15.63;80.56
20909;BME280;10614;53.198;6.570;2023-06-10T03:10:47;101752.22;;;15.44;80.26
20909;BME280;10614;53.198;6.570;2023-06-10T03:12:51;101785.34;;;15.54;81.49
20909;BME280;10614;53.198;6.570;2023-06-10T03:14:54;101823.28;;;15.77;82.68
20909;BME280;10614;53.198;6.570;2023-06-10T03:16:59;101826.94;;;15.74;83.57
20909;BME280;10614;53.198;6.570;2023-06-10T03:19:03;101835.06;;;15.71;83.92
20909;BME280;10614;53.198;6.570;2023-06-10T03:21:08;101819.63;;;15.59;84.49
20909;BME280;10614;53.198;6.570;2023-06-10T03:23:10;101835.28;;;15.65;84.65
20909;BME280;10614;53.198;6.570;2023-06-10T03:25:13;101833.59;;;15.64;85.36
20909;BME280;10614;53.198;6.570;2023-06-10T03:27:15;101824.25;;;15.55;86.47
20909;BME280;10614;53.198;6.570;2023-06-10T03:29:17;101824.25;;;15.55;86.71
20909;BME280;10614;53.198;6.570;2023-06-10T03:31:20;101839.09;;;15.59;88.10
20909;BME280;10614;53.198;6.570;2023-06-10T03:33:24;101834.84;;;15.55;88.61
20909;BME280;10614;53.198;6.570;2023-06-10T03:35:26;101842.88;;;15.54;89.45
20909;BME280;10614;53.198;6.570;2023-06-10T03:37:28;101842.06;;;15.52;89.77
20909;BME280;10614;53.198;6.570;2023-06-10T03:39:30;101844.81;;;15.50;90.73
20909;BME280;10614;53.198;6.570;2023-06-10T03:41:32;101847.31;;;15.53;90.70
20909;BME280;10614;53.198;6.570;2023-06-10T03:43:34;101846.59;;;15.50;91.49
20909;BME280;10614;53.198;6.570;2023-06-10T03:45:35;101844.13;;;15.45;92.17
20909;BME280;10614;53.198;6.570;2023-06-10T03:47:38;101840.72;;;15.43;93.65
20909;BME280;10614;53.198;6.570;2023-06-10T03:49:42;101849.75;;;15.39;95.11
20909;BME280;10614;53.198;6.570;2023-06-10T03:51:44;101844.69;;;15.33;95.74
20909;BME280;10614;53.198;6.570;2023-06-10T03:53:46;101851.72;;;15.34;96.06
20909;BME280;10614;53.198;6.570;2023-06-10T03:55:47;101856.09;;;15.35;96.24
20909;BME280;10614;53.198;6.570;2023-06-10T03:57:49;101851.78;;;15.32;97.82
20909;BME280;10614;53.198;6.570;2023-06-10T03:59:51;101864.13;;;15.33;99.00
20909;BME280;10614;53.198;6.570;2023-06-10T04:01:53;101825.88;;;15.18;99.15
20909;BME280;10614;53.198;6.570;2023-06-10T04:03:56;101855.19;;;15.36;98.77
20909;BME280;10614;53.198;6.570;2023-06-10T04:06:03;101860.41;;;15.37;100.00
20909;BME280;10614;53.198;6.570;2023-06-10T04:08:05;101849.09;;;15.34;100.00
20909;BME280;10614;53.198;6.570;2023-06-10T04:10:08;101848.88;;;15.38;100.00
20909;BME280;10614;53.198;6.570;2023-06-10T04:12:10;101848.88;;;15.38;100.00
20909;BME280;10614;53.198;6.570;2023-06-10T04:14:12;101850.59;;;15.39;100.00
20909;BME280;10614;53.198;6.570;2023-06-10T04:16:14;101843.78;;;15.34;100.00
20909;BME280;10614;53.198;6.570;2023-06-10T04:18:16;101854.09;;;15.40;100.00
20909;BME280;10614;53.198;6.570;2023-06-10T04:20:18;101855.00;;;15.40;100.00
20909;BME280;10614;53.198;6.570;2023-06-10T04:22:22;101854.03;;;15.41;100.00
20909;BME280;10614;53.198;6.570;2023-06-10T04:24:24;101846.03;;;15.43;100.00
20909;BME280;10614;53.198;6.570;2023-06-10T04:26:27;101854.84;;;15.44;100.00
20909;BME280;10614;53.198;6.570;2023-06-10T04:28:29;101841.13;;;15.34;100.00
20909;BME280;10614;53.198;6.570;2023-06-10T04:30:31;101858.41;;;15.43;100.00
20909;BME280;10614;53.198;6.570;2023-06-10T04:32:32;101855.84;;;15.41;100.00
20909;BME280;10614;53.198;6.570;2023-06-10T04:34:37;101848.78;;;15.40;100.00
20909;BME280;10614;53.198;6.570;2023-06-10T04:36:40;101842.44;;;15.44;100.00
20909;BME280;10614;53.198;6.570;2023-06-10T04:38:44;101855.28;;;15.53;100.00
20909;BME280;10614;53.198;6.570;2023-06-10T04:40:46;101854.28;;;15.56;100.00
20909;BME280;10614;53.198;6.570;2023-06-10T04:42:48;101859.38;;;15.60;100.00
20909;BME280;10614;53.198;6.570;2023-06-10T04:44:50;101862.09;;;15.59;100.00
20909;BME280;10614;53.198;6.570;2023-06-10T04:46:52;101863.75;;;15.61;100.00
20909;BME280;10614;53.198;6.570;2023-06-10T04:48:55;101862.00;;;15.62;100.00
20909;BME280;10614;53.198;6.570;2023-06-10T04:50:58;101857.53;;;15.62;100.00
20909;BME280;10614;53.198;6.570;2023-06-10T04:53:00;101860.03;;;15.66;100.00
20909;BME280;10614;53.198;6.570;2023-06-10T04:55:04;101866.28;;;15.65;100.00
20909;BME280;10614;53.198;6.570;2023-06-10T04:57:07;101866.28;;;15.65;100.00
20909;BME280;10614;53.198;6.570;2023-06-10T04:59:09;101861.84;;;15.65;100.00
20909;BME280;10614;53.198;6.570;2023-06-10T05:01:10;101866.16;;;15.68;100.00
20909;BME280;10614;53.198;6.570;2023-06-10T05:03:12;101873.13;;;15.70;100.00
20909;BME280;10614;53.198;6.570;2023-06-10T05:05:14;101865.91;;;15.74;100.00
20909;BME280;10614;53.198;6.570;2023-06-10T05:07:16;101873.94;;;15.72;100.00
20909;BME280;10614;53.198;6.570;2023-06-10T05:09:18;101874.00;;;15.71;100.00
20909;BME280;10614;53.198;6.570;2023-06-10T05:11:22;101875.66;;;15.73;100.00
20909;BME280;10614;53.198;6.570;2023-06-10T05:13:23;101874.78;;;15.73;100.00
20909;BME280;10614;53.198;6.570;2023-06-10T05:15:25;101877.44;;;15.73;100.00
20909;BME280;10614;53.198;6.570;2023-06-10T05:17:27;101872.25;;;15.70;100.00
20909;BME280;10614;53.198;6.570;2023-06-10T05:19:29;101866.16;;;15.68;100.00
20909;BME280;10614;53.198;6.570;2023-06-10T05:21:31;101870.28;;;15.75;100.00
20909;BME280;10614;53.198;6.570;2023-06-10T05:23:35;101868.41;;;15.77;100.00
20909;BME280;10614;53.198;6.570;2023-06-10T05:25:37;101870.13;;;15.78;100.00
20909;BME280;10614;53.198;6.570;2023-06-10T05:27:40;101876.22;;;15.80;100.00
20909;BME280;10614;53.198;6.570;2023-06-10T05:29:43;101865.69;;;15.78;100.00
20909;BME280;10614;53.198;6.570;2023-06-10T05:31:46;101874.38;;;15.82;100.00
20909;BME280;10614;53.198;6.570;2023-06-10T05:33:48;101879.41;;;15.88;100.00
20909;BME280;10614;53.198;6.570;2023-06-10T05:35:50;101877.56;;;15.90;100.00
20909;BME280;10614;53.198;6.570;2023-06-10T05:37:52;101881.84;;;15.93;100.00
20909;BME280;10614;53.198;6.570;2023-06-10T05:39:54;101887.22;;;15.91;100.00
20909;BME280;10614;53.198;6.570;2023-06-10T05:41:56;101882.97;;;15.87;100.00
20909;BME280;10614;53.198;6.570;2023-06-10T05:44:00;101887.59;;;15.83;100.00
20909;BME280;10614;53.198;6.570;2023-06-10T05:46:04;101878.09;;;15.78;100.00
20909;BME280;10614;53.198;6.570;2023-06-10T05:48:06;101886.53;;;15.88;100.00
20909;BME280;10614;53.198;6.570;2023-06-10T05:50:08;101884.50;;;15.93;100.00
20909;BME280;10614;53.198;6.570;2023-06-10T05:52:10;101875.53;;;15.95;100.00
20909;BME280;10614;53.198;6.570;2023-06-10T05:54:12;101879.63;;;16.02;100.00
20909;BME280;10614;53.198;6.570;2023-06-10T05:56:14;101868.84;;;16.06;100.00
20909;BME280;10614;53.198;6.570;2023-06-10T05:58:17;101873.25;;;16.07;100.00
20909;BME280;10614;53.198;6.570;2023-06-10T06:00:22;101877.63;;;16.08;100.00
20909;BME280;10614;53.198;6.570;2023-06-10T06:02:26;101878.47;;;16.08;100.00
20909;BME280;10614;53.198;6.570;2023-06-10T06:04:30;101883.03;;;16.06;100.00
20909;BME280;10614;53.198;6.570;2023-06-10T06:06:32;101870.72;;;16.03;100.00
20909;BME280;10614;53.198;6.570;2023-06-10T06:08:35;101879.78;;;15.99;100.00
20909;BME280;10614;53.198;6.570;2023-06-10T06:10:38;101875.19;;;16.03;100.00
20909;BME280;10614;53.198;6.570;2023-06-10T06:12:39;101881.00;;;16.11;100.00
20909;BME280;10614;53.198;6.570;2023-06-10T06:14:41;101874.53;;;16.17;100.00
20909;BME280;10614;53.198;6.570;2023-06-10T06:16:46;101879.56;;;16.23;100.00
20909;BME280;10614;53.198;6.570;2023-06-10T06:18:48;101872.31;;;16.27;100.00
20909;BME280;10614;53.198;6.570;2023-06-10T06:20:50;101866.13;;;16.26;100.00
20909;BME280;10614;53.198;6.570;2023-06-10T06:22:52;101869.53;;;16.30;100.00
20909;BME280;10614;53.198;6.570;2023-06-10T06:24:54;101861.47;;;16.31;100.00
20909;BME280;10614;53.198;6.570;2023-06-10T06:26:56;101876.03;;;16.41;100.00
20909;BME280;10614;53.198;6.570;2023-06-10T06:28:58;101873.22;;;16.44;100.00
20909;BME280;10614;53.198;6.570;2023-06-10T06:31:00;101872.00;;;16.52;100.00
20909;BME280;10614;53.198;6.570;2023-06-10T06:33:03;101854.41;;;16.49;100.00
20909;BME280;10614;53.198;6.570;2023-06-10T06:35:05;101868.94;;;16.59;100.00
20909;BME280;10614;53.198;6.570;2023-06-10T06:37:10;101861.94;;;16.58;100.00
20909;BME280;10614;53.198;6.570;2023-06-10T06:39:11;101869.69;;;16.63;100.00
20909;BME280;10614;53.198;6.570;2023-06-10T06:41:14;101862.56;;;16.63;100.00
20909;BME280;10614;53.198;6.570;2023-06-10T06:43:16;101876.41;;;16.70;100.00
20909;BME280;10614;53.198;6.570;2023-06-10T06:45:20;101858.88;;;16.66;100.00
20909;BME280;10614;53.198;6.570;2023-06-10T06:47:24;101869.06;;;16.75;100.00
20909;BME280;10614;53.198;6.570;2023-06-10T06:49:28;101869.06;;;16.75;100.00
20909;BME280;10614;53.198;6.570;2023-06-10T06:51:31;101862.97;;;16.73;100.00
20909;BME280;10614;53.198;6.570;2023-06-10T06:53:33;101867.16;;;16.79;100.00
20909;BME280;10614;53.198;6.570;2023-06-10T06:55:36;101856.53;;;16.79;100.00
20909;BME280;10614;53.198;6.570;2023-06-10T06:57:38;101861.63;;;16.83;100.00
20909;BME280;10614;53.198;6.570;2023-06-10T06:59:40;101870.06;;;16.92;100.00
20909;BME280;10614;53.198;6.570;2023-06-10T07:01:42;101879.63;;;16.96;100.00
20909;BME280;10614;53.198;6.570;2023-06-10T07:03:44;101870.91;;;16.92;100.00
20909;BME280;10614;53.198;6.570;2023-06-10T07:05:47;101869.81;;;16.96;99.99
20909;BME280;10614;53.198;6.570;2023-06-10T07:07:49;101888.03;;;17.04;98.91
20909;BME280;10614;53.198;6.570;2023-06-10T07:09:55;101876.31;;;17.08;99.10
20909;BME280;10614;53.198;6.570;2023-06-10T07:11:57;101864.28;;;17.01;97.86
20909;BME280;10614;53.198;6.570;2023-06-10T07:13:59;101878.59;;;17.16;97.72
20909;BME280;10614;53.198;6.570;2023-06-10T07:16:01;101882.75;;;17.21;97.02
20909;BME280;10614;53.198;6.570;2023-06-10T07:18:03;101872.00;;;17.23;98.01
20909;BME280;10614;53.198;6.570;2023-06-10T07:20:06;101873.91;;;17.21;97.30
20909;BME280;10614;53.198;6.570;2023-06-10T07:22:10;101884.78;;;17.34;97.83
20909;BME280;10614;53.198;6.570;2023-06-10T07:24:12;101881.81;;;17.40;97.93
20909;BME280;10614;53.198;6.570;2023-06-10T07:26:15;101864.75;;;17.26;97.07
20909;BME280;10614;53.198;6.570;2023-06-10T07:28:17;101887.56;;;17.48;96.70
20909;BME280;10614;53.198;6.570;2023-06-10T07:30:19;101883.97;;;17.49;95.94
20909;BME280;10614;53.198;6.570;2023-06-10T07:32:21;101876.91;;;17.48;95.15
20909;BME280;10614;53.198;6.570;2023-06-10T07:34:24;101891.44;;;17.58;95.69
20909;BME280;10614;53.198;6.570;2023-06-10T07:36:30;101888.66;;;17.61;94.94
20909;BME280;10614;53.198;6.570;2023-06-10T07:38:36;101893.03;;;17.62;94.44
20909;BME280;10614;53.198;6.570;2023-06-10T07:40:38;101889.34;;;17.65;94.53
20909;BME280;10614;53.198;6.570;2023-06-10T07:42:40;101877.22;;;17.59;93.80
20909;BME280;10614;53.198;6.570;2023-06-10T07:44:43;101892.63;;;17.70;93.12
20909;BME280;10614;53.198;6.570;2023-06-10T07:46:46;101879.56;;;17.65;93.18
20909;BME280;10614;53.198;6.570;2023-06-10T07:48:48;101889.81;;;17.73;93.16
20909;BME280;10614;53.198;6.570;2023-06-10T07:50:50;101887.81;;;17.77;93.39
20909;BME280;10614;53.198;6.570;2023-06-10T07:52:52;101893.84;;;17.80;92.31
20909;BME280;10614;53.198;6.570;2023-06-10T07:54:55;101899.03;;;17.83;90.96
20909;BME280;10614;53.198;6.570;2023-06-10T07:56:57;101889.34;;;17.82;90.33
20909;BME280;10614;53.198;6.570;2023-06-10T07:58:59;101901.81;;;17.82;90.00
20909;BME280;10614;53.198;6.570;2023-06-10T08:01:01;101899.13;;;17.82;90.21
20909;BME280;10614;53.198;6.570;2023-06-10T08:03:03;101907.63;;;17.88;90.96
20909;BME280;10614;53.198;6.570;2023-06-10T08:05:05;101905.63;;;17.93;90.43
20909;BME280;10614;53.198;6.570;2023-06-10T08:07:07;101897.25;;;18.00;90.50
20909;BME280;10614;53.198;6.570;2023-06-10T08:09:09;101900.63;;;18.03;89.89
20909;BME280;10614;53.198;6.570;2023-06-10T08:11:14;101900.53;;;18.05;89.54
20909;BME280;10614;53.198;6.570;2023-06-10T08:13:16;101904.75;;;18.09;89.13
20909;BME280;10614;53.198;6.570;2023-06-10T08:15:19;101901.84;;;18.13;90.20
20909;BME280;10614;53.198;6.570;2023-06-10T08:17:20;101895.41;;;18.18;90.16
20909;BME280;10614;53.198;6.570;2023-06-10T08:19:22;101903.22;;;18.21;89.15
20909;BME280;10614;53.198;6.570;2023-06-10T08:21:24;101894.13;;;18.25;89.09
20909;BME280;10614;53.198;6.570;2023-06-10T08:23:26;101907.97;;;18.31;88.80
20909;BME280;10614;53.198;6.570;2023-06-10T08:25:29;101895.69;;;18.29;88.97
20909;BME280;10614;53.198;6.570;2023-06-10T08:27:35;101889.22;;;18.33;87.71
20909;BME280;10614;53.198;6.570;2023-06-10T08:29:39;101898.50;;;18.42;88.23
20909;BME280;10614;53.198;6.570;2023-06-10T08:31:48;101900.84;;;18.48;87.64
20909;BME280;10614;53.198;6.570;2023-06-10T08:33:50;101902.47;;;18.50;87.74
20909;BME280;10614;53.198;6.570;2023-06-10T08:35:52;101896.75;;;18.56;86.77
20909;BME280;10614;53.198;6.570;2023-06-10T08:37:54;101899.00;;;18.64;87.19
20909;BME280;10614;53.198;6.570;2023-06-10T08:39:58;101898.16;;;18.64;86.39
20909;BME280;10614;53.198;6.570;2023-06-10T08:42:07;101900.28;;;18.73;86.11
20909;BME280;10614;53.198;6.570;2023-06-10T08:44:17;101894.63;;;18.79;85.74
20909;BME280;10614;53.198;6.570;2023-06-10T08:46:23;101891.88;;;18.81;85.56
20909;BME280;10614;53.198;6.570;2023-06-10T08:48:27;101893.44;;;18.85;86.10
20909;BME280;10614;53.198;6.570;2023-06-10T08:50:31;101901.13;;;18.89;85.29
20909;BME280;10614;53.198;6.570;2023-06-10T08:52:35;101890.31;;;18.92;85.25
20909;BME280;10614;53.198;6.570;2023-06-10T08:54:48;101889.94;;;18.98;85.05
20909;BME280;10614;53.198;6.570;2023-06-10T08:56:51;101889.56;;;19.05;85.06
20909;BME280;10614;53.198;6.570;2023-06-10T08:58:56;101894.72;;;19.08;84.64
20909;BME280;10614;53.198;6.570;2023-06-10T09:01:03;101889.38;;;19.08;84.71
20909;BME280;10614;53.198;6.570;2023-06-10T09:03:05;101893.41;;;19.15;85.06
20909;BME280;10614;53.198;6.570;2023-06-10T09:05:09;101892.00;;;19.24;84.09
20909;BME280;10614;53.198;6.570;2023-06-10T09:07:12;101897.94;;;19.29;83.74
20909;BME280;10614;53.198;6.570;2023-06-10T09:09:15;101900.44;;;19.32;82.91
20909;BME280;10614;53.198;6.570;2023-06-10T09:11:18;101887.94;;;19.32;82.73
20909;BME280;10614;53.198;6.570;2023-06-10T09:13:20;101902.81;;;19.36;82.75
20909;BME280;10614;53.198;6.570;2023-06-10T09:15:23;101899.00;;;19.40;82.35
20909;BME280;10614;53.198;6.570;2023-06-10T09:17:26;101896.94;;;19.46;81.54
20909;BME280;10614;53.198;6.570;2023-06-10T09:19:28;101901.88;;;19.52;81.21
20909;BME280;10614;53.198;6.570;2023-06-10T09:21:30;101891.13;;;19.53;81.19
20909;BME280;10614;53.198;6.570;2023-06-10T09:23:32;101889.03;;;19.58;79.88
20909;BME280;10614;53.198;6.570;2023-06-10T09:25:35;101887.03;;;19.62;79.38
20909;BME280;10614;53.198;6.570;2023-06-10T09:27:45;101884.69;;;19.72;79.72
20909;BME280;10614;53.198;6.570;2023-06-10T09:29:52;101872.38;;;19.69;79.50
20909;BME280;10614;53.198;6.570;2023-06-10T09:31:54;101889.34;;;19.82;78.49
20909;BME280;10614;53.198;6.570;2023-06-10T09:34:06;101884.38;;;19.91;77.63
20909;BME280;10614;53.198;6.570;2023-06-10T09:36:08;101870.91;;;19.92;77.72
20909;BME280;10614;53.198;6.570;2023-06-10T09:38:10;101877.50;;;20.01;77.58
20909;BME280;10614;53.198;6.570;2023-06-10T09:40:12;101873.69;;;20.05;77.13
20909;BME280;10614;53.198;6.570;2023-06-10T09:42:18;101878.66;;;20.11;76.99
20909;BME280;10614;53.198;6.570;2023-06-10T09:44:21;101873.94;;;20.15;77.01
20909;BME280;10614;53.198;6.570;2023-06-10T09:46:31;101870.88;;;20.21;76.67
20909;BME280;10614;53.198;6.570;2023-06-10T09:48:41;101867.91;;;20.26;76.43
20909;BME280;10614;53.198;6.570;2023-06-10T09:50:45;101866.94;;;20.27;76.33
20909;BME280;10614;53.198;6.570;2023-06-10T09:52:47;101869.22;;;20.33;76.22
20909;BME280;10614;53.198;6.570;2023-06-10T09:54:50;101876.84;;;20.39;76.59
20909;BME280;10614;53.198;6.570;2023-06-10T09:56:52;101865.19;;;20.40;76.77
20909;BME280;10614;53.198;6.570;2023-06-10T09:58:54;101871.31;;;20.42;77.10
20909;BME280;10614;53.198;6.570;2023-06-10T10:00:56;101868.34;;;20.47;77.11
20909;BME280;10614;53.198;6.570;2023-06-10T10:02:58;101867.16;;;20.51;77.11
20909;BME280;10614;53.198;6.570;2023-06-10T10:05:02;101877.56;;;20.55;77.28
20909;BME280;10614;53.198;6.570;2023-06-10T10:07:06;101875.50;;;20.60;76.29
20909;BME280;10614;53.198;6.570;2023-06-10T10:09:09;101871.63;;;20.64;75.88
20909;BME280;10614;53.198;6.570;2023-06-10T10:11:13;101869.72;;;20.66;75.50
20909;BME280;10614;53.198;6.570;2023-06-10T10:13:16;101865.56;;;20.75;75.74
20909;BME280;10614;53.198;6.570;2023-06-10T10:15:19;101870.63;;;20.80;75.55
20909;BME280;10614;53.198;6.570;2023-06-10T10:17:23;101878.88;;;20.90;74.55
20909;BME280;10614;53.198;6.570;2023-06-10T10:19:28;101875.59;;;20.99;74.59
20909;BME280;10614;53.198;6.570;2023-06-10T10:21:42;101888.44;;;21.06;74.15
20909;BME280;10614;53.198;6.570;2023-06-10T10:23:52;101870.06;;;21.15;73.49
20909;BME280;10614;53.198;6.570;2023-06-10T10:26:00;101871.53;;;21.19;73.56
20909;BME280;10614;53.198;6.570;2023-06-10T10:28:08;101857.44;;;21.17;73.28
20909;BME280;10614;53.198;6.570;2023-06-10T10:30:14;101871.25;;;21.36;73.41
20909;BME280;10614;53.198;6.570;2023-06-10T10:32:17;101864.22;;;21.48;73.29
20909;BME280;10614;53.198;6.570;2023-06-10T10:34:26;101864.44;;;21.58;72.32
20909;BME280;10614;53.198;6.570;2023-06-10T10:36:32;101871.91;;;21.65;71.67
20909;BME280;10614;53.198;6.570;2023-06-10T10:38:34;101867.50;;;21.77;71.77
20909;BME280;10614;53.198;6.570;2023-06-10T10:40:41;101869.66;;;21.85;71.11
20909;BME280;10614;53.198;6.570;2023-06-10T10:42:45;101865.69;;;21.90;70.71